Time;durP1;ratioP1;P1;durP2;ratioP2;P2;SDS_P1;SDS_P2;PMS_P1;PMS_P2;Temp;Humidity;BMP_temperature;BMP_pressure;BME280_temperature;BME280_humidity;BME280_pressure;Samples;Min_cycle;Max_cycle;Signal;HPM_P1;HPM_P2
2022/10/11 00:01:16;;;;;;;82.25;61.40;;;26.60;99.90;;;;;;5068032;28;20013;-72
2022/10/11 00:03:42;;;;;;;77.85;60.90;;;26.60;99.90;;;;;;5064819;28;20021;-70
2022/10/11 00:06:09;;;;;;;89.97;68.63;;;26.70;99.90;;;;;;5065032;28;20024;-70
2022/10/11 00:08:35;;;;;;;82.72;66.07;;;26.70;99.90;;;;;;5066248;28;20043;-71
2022/10/11 00:11:05;;;;;;;92.43;72.60;;;26.80;99.90;;;;;;5064801;28;20021;-71
2022/10/11 00:13:32;;;;;;;96.30;75.18;;;26.80;99.90;;;;;;5064076;28;20031;-69
2022/10/11 00:15:59;;;;;;;159.35;124.00;;;26.90;99.90;;;;;;5059412;28;20033;-69
2022/10/11 00:18:26;;;;;;;105.38;78.38;;;26.90;99.90;;;;;;5064330;28;20015;-69
2022/10/11 00:21:06;;;;;;;122.10;93.00;;;26.90;99.90;;;;;;5066376;28;20096;-70
2022/10/11 00:23:33;;;;;;;80.43;62.70;;;26.90;99.90;;;;;;5065245;28;20031;-71
2022/10/11 00:26:02;;;;;;;101.78;76.70;;;26.90;99.90;;;;;;5107450;22;20057;-71
2022/10/11 00:28:29;;;;;;;100.40;80.45;;;26.90;99.90;;;;;;5065084;28;20031;-71
2022/10/11 00:30:56;;;;;;;83.47;60.60;;;27.00;99.90;;;;;;5066163;28;20577;-70
2022/10/11 00:33:23;;;;;;;87.05;58.53;;;27.00;99.90;;;;;;5064585;28;20028;-69
2022/10/11 00:35:49;;;;;;;71.13;54.95;;;27.10;99.90;;;;;;5064621;28;20015;-69
2022/10/11 00:38:16;;;;;;;72.63;50.22;;;27.20;99.90;;;;;;5066129;28;20088;-69
2022/10/11 00:40:44;;;;;;;68.07;48.08;;;27.20;99.90;;;;;;5064638;28;20013;-69
2022/10/11 00:43:18;;;;;;;67.63;51.15;;;27.20;99.90;;;;;;5064316;28;20028;-70
2022/10/11 00:46:00;;;;;;;71.10;49.35;;;27.30;99.90;;;;;;5062803;28;20029;-69
2022/10/11 00:48:38;;;;;;;73.88;51.05;;;27.30;99.90;;;;;;5063565;28;20025;-69
2022/10/11 00:51:15;;;;;;;62.95;45.45;;;27.40;99.90;;;;;;5064091;28;20446;-69
2022/10/11 00:53:42;;;;;;;61.30;45.28;;;27.50;99.90;;;;;;5061764;28;20032;-69
2022/10/11 00:56:16;;;;;;;59.30;44.28;;;27.60;99.90;;;;;;5064235;28;20077;-68
2022/10/11 00:58:43;;;;;;;65.75;47.22;;;27.70;99.90;;;;;;5062843;28;20013;-68
2022/10/11 01:01:10;;;;;;;61.63;45.55;;;27.60;99.90;;;;;;5089447;22;20461;-69
2022/10/11 01:03:38;;;;;;;64.22;43.88;;;27.70;99.90;;;;;;5065212;28;20020;-69
2022/10/11 01:06:05;;;;;;;59.42;38.20;;;27.80;99.90;;;;;;5064571;28;20025;-69
2022/10/11 01:08:32;;;;;;;267.27;189.45;;;27.70;99.90;;;;;;5063545;28;20025;-71
2022/10/11 01:10:59;;;;;;;62.67;44.70;;;27.90;99.90;;;;;;5060645;28;20017;-72
2022/10/11 01:13:28;;;;;;;92.68;69.25;;;27.90;99.90;;;;;;5088878;22;20063;-70
2022/10/11 01:16:21;;;;;;;80.68;54.83;;;27.90;99.90;;;;;;5063020;28;20056;-76
2022/10/11 01:19:09;;;;;;;57.60;42.95;;;28.00;99.90;;;;;;5066501;28;20024;-72
2022/10/11 01:21:50;;;;;;;47.30;31.65;;;28.10;99.90;;;;;;5067903;28;20020;-70
2022/10/11 01:24:35;;;;;;;50.28;36.75;;;28.20;99.90;;;;;;5064973;28;20426;-72
2022/10/11 01:27:02;;;;;;;47.13;32.78;;;28.30;99.90;;;;;;5063280;28;20040;-71
2022/10/11 01:29:40;;;;;;;44.47;32.17;;;28.30;99.90;;;;;;5063459;28;20012;-71
2022/10/11 01:32:18;;;;;;;44.83;30.33;;;28.20;99.90;;;;;;5064301;28;20033;-68
2022/10/11 01:34:57;;;;;;;36.65;26.42;;;28.00;99.90;;;;;;5063299;28;20407;-68
2022/10/11 01:37:31;;;;;;;43.05;28.65;;;28.00;99.90;;;;;;5063547;28;20044;-69
2022/10/11 01:40:08;;;;;;;161.00;112.10;;;28.20;99.90;;;;;;5062797;28;20464;-68
2022/10/11 01:42:38;;;;;;;39.30;27.63;;;28.30;99.90;;;;;;5062396;28;20109;-67
2022/10/11 01:45:08;;;;;;;41.78;28.85;;;28.20;99.90;;;;;;5063628;28;20092;-68
2022/10/11 01:47:35;;;;;;;52.88;32.05;;;28.10;99.90;;;;;;5064234;28;20021;-66
2022/10/11 01:50:02;;;;;;;55.75;39.38;;;28.10;99.90;;;;;;5056433;28;20396;-69
2022/10/11 01:52:33;;;;;;;75.60;49.63;;;28.10;99.90;;;;;;5053910;28;20024;-69
2022/10/11 01:55:01;;;;;;;49.53;28.88;;;28.10;99.90;;;;;;5054392;28;20040;-65
2022/10/11 01:57:37;;;;;;;40.95;26.48;;;28.20;99.90;;;;;;5054024;28;20021;-65
2022/10/11 02:00:10;;;;;;;40.20;27.75;;;28.30;99.90;;;;;;5052989;28;20025;-66
2022/10/11 02:02:57;;;;;;;35.97;27.67;;;28.40;99.90;;;;;;5051632;28;20044;-67
2022/10/11 02:05:51;;;;;;;42.78;28.83;;;28.40;99.90;;;;;;5053668;28;20021;-70
2022/10/11 02:08:34;;;;;;;47.22;28.65;;;28.30;99.90;;;;;;5053773;28;20025;-68
2022/10/11 02:11:09;;;;;;;41.60;28.80;;;28.30;99.90;;;;;;5053543;28;20104;-69
2022/10/11 02:13:40;;;;;;;41.50;26.75;;;28.40;99.90;;;;;;5053670;28;20043;-66
2022/10/11 02:16:11;;;;;;;39.22;29.45;;;28.40;99.90;;;;;;5033464;28;20095;-69
2022/10/11 02:18:43;;;;;;;40.60;28.50;;;28.50;99.90;;;;;;5033716;28;20025;-67
2022/10/11 02:21:14;;;;;;;38.15;26.88;;;28.40;99.90;;;;;;5033539;28;20025;-69
2022/10/11 02:23:50;;;;;;;47.67;29.05;;;28.40;99.90;;;;;;5015709;28;20538;-68
2022/10/11 02:26:20;;;;;;;42.53;30.40;;;28.50;99.90;;;;;;5033620;28;20045;-69
2022/10/11 02:28:49;;;;;;;46.47;29.85;;;28.50;99.90;;;;;;5033377;28;20392;-70
2022/10/11 02:31:18;;;;;;;51.38;31.75;;;28.40;99.90;;;;;;5033437;28;20119;-70
2022/10/11 02:33:51;;;;;;;45.83;31.55;;;28.40;99.90;;;;;;5033401;28;20025;-70
2022/10/11 02:36:25;;;;;;;41.40;30.45;;;28.40;99.90;;;;;;5033497;28;20024;-69
2022/10/11 02:38:58;;;;;;;44.08;30.75;;;28.50;99.90;;;;;;5033732;28;20104;-69
2022/10/11 02:41:35;;;;;;;44.45;32.35;;;28.50;99.90;;;;;;5033430;28;20021;-70
2022/10/11 02:44:08;;;;;;;50.55;32.83;;;28.50;99.90;;;;;;5033191;28;20107;-69
2022/10/11 02:46:36;;;;;;;53.20;37.00;;;28.60;99.90;;;;;;5022804;28;20106;-69
2022/10/11 02:49:03;;;;;;;47.25;32.90;;;28.50;99.90;;;;;;5024594;28;20029;-69
2022/10/11 02:51:31;;;;;;;49.40;34.13;;;28.50;99.90;;;;;;5025416;28;20080;-69
2022/10/11 02:53:57;;;;;;;55.30;37.03;;;28.60;99.90;;;;;;5032342;28;20043;-69
2022/10/11 02:56:24;;;;;;;52.75;37.33;;;28.60;99.90;;;;;;5032547;28;20035;-71
2022/10/11 02:58:50;;;;;;;54.63;37.00;;;28.60;99.90;;;;;;5033031;28;20037;-69
2022/10/11 03:01:17;;;;;;;60.60;38.17;;;28.60;99.90;;;;;;5033028;28;20109;-68
2022/10/11 03:03:43;;;;;;;53.08;36.78;;;28.60;99.90;;;;;;5033206;28;20480;-67
2022/10/11 03:06:11;;;;;;;49.08;35.30;;;28.70;99.90;;;;;;5031758;28;20030;-67
2022/10/11 03:08:38;;;;;;;64.90;38.25;;;28.70;99.90;;;;;;5033078;28;20491;-67
2022/10/11 03:11:04;;;;;;;63.00;39.65;;;28.80;99.90;;;;;;5033072;28;20464;-67
2022/10/11 03:13:31;;;;;;;51.67;37.88;;;28.80;99.90;;;;;;5033092;28;20463;-68
2022/10/11 03:15:57;;;;;;;50.75;36.35;;;28.90;99.90;;;;;;5049172;28;20076;-66
2022/10/11 03:18:24;;;;;;;56.28;39.08;;;28.90;99.90;;;;;;5053009;28;20036;-68
2022/10/11 03:20:50;;;;;;;58.33;38.72;;;28.90;99.90;;;;;;5053195;28;20018;-65
2022/10/11 03:23:18;;;;;;;59.33;41.28;;;28.90;99.90;;;;;;5055441;28;20051;-65
2022/10/11 03:25:45;;;;;;;58.58;41.13;;;28.90;99.90;;;;;;5056585;28;20025;-68
2022/10/11 03:28:12;;;;;;;56.58;37.05;;;29.00;99.90;;;;;;5056647;28;20029;-68
2022/10/11 03:30:38;;;;;;;53.15;36.10;;;29.00;99.90;;;;;;5056568;28;20025;-72
2022/10/11 03:33:05;;;;;;;56.40;36.80;;;29.10;99.90;;;;;;5056323;28;20036;-68
2022/10/11 03:35:31;;;;;;;51.92;34.47;;;29.10;99.90;;;;;;5053375;28;20028;-68
2022/10/11 03:37:58;;;;;;;49.03;36.17;;;29.00;99.90;;;;;;5045307;28;20049;-68
2022/10/11 03:40:24;;;;;;;47.63;33.70;;;29.10;99.90;;;;;;5036256;28;20025;-68
2022/10/11 03:42:53;;;;;;;45.67;31.95;;;29.10;99.90;;;;;;5036199;28;20017;-68
2022/10/11 03:45:20;;;;;;;53.58;35.25;;;29.10;99.90;;;;;;5036187;28;20060;-68
2022/10/11 03:47:46;;;;;;;53.95;34.58;;;29.20;99.90;;;;;;5036159;28;20415;-68
2022/10/11 03:50:13;;;;;;;49.50;32.97;;;29.30;99.90;;;;;;5036131;28;20018;-69
2022/10/11 03:52:39;;;;;;;44.13;28.63;;;29.30;99.90;;;;;;5036161;28;20026;-68
2022/10/11 03:55:06;;;;;;;40.22;29.27;;;29.40;99.90;;;;;;5035728;28;20021;-68
2022/10/11 03:57:32;;;;;;;33.22;22.35;;;29.30;99.90;;;;;;5035748;28;20025;-67
2022/10/11 03:59:59;;;;;;;22.00;15.40;;;29.30;99.90;;;;;;5035811;28;20466;-69
2022/10/11 04:02:26;;;;;;;25.05;16.02;;;29.30;99.90;;;;;;5035745;28;20469;-69
2022/10/11 04:04:52;;;;;;;27.88;17.42;;;29.30;99.90;;;;;;5036044;28;20389;-68
2022/10/11 04:07:19;;;;;;;26.73;15.88;;;29.30;99.90;;;;;;5035777;28;20119;-68
2022/10/11 04:09:45;;;;;;;26.08;15.15;;;29.20;99.90;;;;;;5035733;28;20029;-69
2022/10/11 04:12:12;;;;;;;38.03;18.80;;;29.30;99.90;;;;;;5035580;28;20491;-68
2022/10/11 04:14:39;;;;;;;31.88;18.98;;;29.20;99.90;;;;;;5035374;28;20099;-67
2022/10/11 04:17:06;;;;;;;20.80;15.05;;;29.20;99.90;;;;;;5035393;28;20025;-67
2022/10/11 04:19:32;;;;;;;21.08;16.38;;;29.20;99.90;;;;;;5035612;28;20046;-68
2022/10/11 04:21:59;;;;;;;26.52;16.00;;;29.20;99.90;;;;;;5035404;28;20075;-69
2022/10/11 04:24:25;;;;;;;26.40;17.33;;;29.20;99.90;;;;;;5035263;28;20503;-69
2022/10/11 04:26:52;;;;;;;30.67;17.80;;;29.30;99.90;;;;;;5035376;28;20079;-69
2022/10/11 04:29:18;;;;;;;22.08;17.27;;;29.30;99.90;;;;;;5035286;28;20392;-68
2022/10/11 04:31:45;;;;;;;23.15;17.42;;;29.20;99.90;;;;;;5035164;28;20025;-68
2022/10/11 04:34:12;;;;;;;35.13;17.40;;;29.20;99.90;;;;;;5034832;28;20025;-68
2022/10/11 04:36:38;;;;;;;25.02;18.10;;;29.20;99.90;;;;;;5035224;28;20018;-68
2022/10/11 04:39:06;;;;;;;35.45;18.40;;;29.20;99.90;;;;;;5034987;28;20021;-68
2022/10/11 04:41:33;;;;;;;33.70;20.67;;;29.20;99.90;;;;;;5035008;28;20024;-69
2022/10/11 04:44:01;;;;;;;32.10;19.02;;;29.20;99.90;;;;;;5035017;28;20030;-69
2022/10/11 04:46:28;;;;;;;28.02;18.42;;;29.20;99.90;;;;;;5034772;28;20033;-65
2022/10/11 04:48:55;;;;;;;33.13;22.30;;;29.30;99.90;;;;;;5034848;28;20037;-64
2022/10/11 04:51:22;;;;;;;34.38;24.42;;;29.20;99.90;;;;;;5034965;28;20032;-66
2022/10/11 04:53:48;;;;;;;38.75;23.52;;;29.10;99.90;;;;;;5034285;28;20029;-66
2022/10/11 04:56:17;;;;;;;34.63;22.10;;;29.00;99.90;;;;;;5034916;28;20397;-65
2022/10/11 04:58:48;;;;;;;27.58;18.40;;;29.00;99.90;;;;;;5034775;28;20392;-66
2022/10/11 05:01:14;;;;;;;26.23;17.90;;;28.90;99.90;;;;;;5034569;28;20022;-66
2022/10/11 05:03:41;;;;;;;23.45;16.63;;;28.90;99.90;;;;;;5034785;28;20029;-66
2022/10/11 05:06:08;;;;;;;28.90;17.02;;;28.90;99.90;;;;;;5034863;28;20021;-66
2022/10/11 05:08:34;;;;;;;31.55;17.98;;;28.80;99.90;;;;;;5034634;28;20025;-66
2022/10/11 05:11:04;;;;;;;26.10;15.35;;;28.80;99.90;;;;;;5034782;28;20032;-66
2022/10/11 05:13:32;;;;;;;24.35;14.75;;;28.80;99.90;;;;;;5034523;28;20044;-66
2022/10/11 05:15:59;;;;;;;14.60;10.35;;;28.90;99.90;;;;;;5033809;28;20046;-67
2022/10/11 05:18:25;;;;;;;18.63;9.38;;;28.80;99.90;;;;;;5034365;28;20029;-66
2022/10/11 05:21:05;;;;;;;13.93;6.38;;;28.70;99.90;;;;;;5034477;28;20179;-65
2022/10/11 05:23:33;;;;;;;11.63;5.75;;;28.40;99.90;;;;;;5031606;28;20044;-65
2022/10/11 05:26:00;;;;;;;12.27;6.13;;;28.20;99.90;;;;;;5034334;28;20041;-65
2022/10/11 05:28:27;;;;;;;24.08;6.43;;;28.10;99.90;;;;;;5033993;28;20034;-64
2022/10/11 05:30:54;;;;;;;15.98;7.90;;;28.10;99.90;;;;;;5033820;28;20025;-67
2022/10/11 05:33:20;;;;;;;13.02;8.68;;;28.10;99.90;;;;;;5027188;28;20376;-65
2022/10/11 05:35:47;;;;;;;16.88;10.40;;;28.10;99.90;;;;;;5022286;28;20176;-64
2022/10/11 05:38:14;;;;;;;21.83;11.20;;;28.10;99.90;;;;;;5023943;28;20096;-65
2022/10/11 05:40:40;;;;;;;21.15;10.50;;;28.20;99.90;;;;;;5022631;28;20465;-64
2022/10/11 05:43:07;;;;;;;18.48;11.52;;;28.20;99.90;;;;;;5022468;28;20026;-65
2022/10/11 05:45:38;;;;;;;26.98;13.25;;;28.20;99.90;;;;;;5023198;28;20022;-65
2022/10/11 05:48:05;;;;;;;26.30;10.60;;;28.00;99.90;;;;;;5016501;28;20036;-65
2022/10/11 05:50:31;;;;;;;19.88;9.30;;;28.10;99.90;;;;;;5021944;28;20018;-65
2022/10/11 05:52:58;;;;;;;21.38;9.40;;;28.10;99.90;;;;;;5013891;28;21894;-65
2022/10/11 05:55:24;;;;;;;17.23;10.30;;;28.10;99.90;;;;;;5013787;28;20436;-65
2022/10/11 05:58:01;;;;;;;15.00;8.35;;;28.00;99.90;;;;;;5013503;28;20038;-65
2022/10/11 06:00:28;;;;;;;19.67;7.72;;;28.20;99.90;;;;;;5013896;28;20109;-66
2022/10/11 06:02:54;;;;;;;15.73;6.95;;;28.10;99.90;;;;;;5013941;28;20469;-65
2022/10/11 06:05:21;;;;;;;15.85;6.28;;;28.20;99.90;;;;;;5020301;28;20017;-66
2022/10/11 06:07:47;;;;;;;10.05;6.25;;;28.20;99.90;;;;;;5027173;28;20021;-69
2022/10/11 06:10:14;;;;;;;13.15;5.90;;;28.20;99.90;;;;;;5033214;28;20037;-65
2022/10/11 06:12:40;;;;;;;10.02;6.55;;;28.20;99.90;;;;;;5029985;28;20026;-66
2022/10/11 06:15:09;;;;;;;9.23;6.22;;;28.20;99.90;;;;;;5022829;28;20488;-65
2022/10/11 06:17:36;;;;;;;14.55;8.07;;;28.20;99.90;;;;;;5035766;28;20036;-65
2022/10/11 06:20:04;;;;;;;22.52;7.47;;;28.20;99.90;;;;;;5041520;28;20021;-65
2022/10/11 06:22:30;;;;;;;12.40;7.30;;;28.20;99.90;;;;;;5042145;28;20017;-65
2022/10/11 06:24:57;;;;;;;19.23;8.77;;;28.20;99.90;;;;;;5043114;28;20095;-65
2022/10/11 06:27:23;;;;;;;19.73;9.30;;;28.30;99.90;;;;;;5041847;28;20440;-65
2022/10/11 06:29:50;;;;;;;28.65;10.20;;;28.30;99.90;;;;;;5041761;28;20363;-65
2022/10/11 06:32:17;;;;;;;31.42;13.73;;;28.10;99.90;;;;;;5052235;28;20037;-66
2022/10/11 06:34:44;;;;;;;30.25;14.57;;;28.10;99.90;;;;;;5041157;28;20480;-65
2022/10/11 06:37:10;;;;;;;29.38;17.42;;;28.20;99.90;;;;;;5053356;28;20025;-65
2022/10/11 06:39:37;;;;;;;20.42;13.57;;;28.30;99.90;;;;;;5053327;28;20170;-65
2022/10/11 06:42:03;;;;;;;26.80;14.20;;;28.30;99.90;;;;;;5053034;28;20025;-65
2022/10/11 06:44:30;;;;;;;40.75;18.48;;;28.40;99.90;;;;;;5052927;28;20017;-66
2022/10/11 06:46:56;;;;;;;32.38;18.98;;;28.40;99.90;;;;;;5053330;28;20037;-65
2022/10/11 06:49:23;;;;;;;36.10;19.40;;;28.40;99.90;;;;;;5046371;28;20025;-65
2022/10/11 06:51:50;;;;;;;23.95;16.65;;;28.30;99.90;;;;;;5044323;28;20425;-66
2022/10/11 06:54:16;;;;;;;24.10;15.25;;;28.20;99.90;;;;;;5032820;28;20026;-65
2022/10/11 06:56:44;;;;;;;20.80;12.02;;;28.30;99.90;;;;;;5034737;28;20118;-64
2022/10/11 06:59:12;;;;;;;18.65;12.23;;;28.20;99.90;;;;;;5036698;28;20026;-65
2022/10/11 07:01:38;;;;;;;25.17;13.13;;;28.10;99.90;;;;;;5045110;28;20471;-66
2022/10/11 07:04:05;;;;;;;29.17;13.80;;;28.20;99.90;;;;;;5039085;28;20030;-65
2022/10/11 07:06:34;;;;;;;22.58;13.13;;;28.20;99.90;;;;;;5036613;28;20021;-65
2022/10/11 07:09:01;;;;;;;26.42;12.25;;;28.10;99.90;;;;;;5036727;28;20047;-64
2022/10/11 07:11:28;;;;;;;27.08;13.93;;;28.20;99.90;;;;;;5036744;28;20550;-64
2022/10/11 07:14:00;;;;;;;24.48;12.95;;;28.20;99.90;;;;;;5036397;28;20033;-65
2022/10/11 07:16:28;;;;;;;19.15;11.30;;;28.20;99.90;;;;;;5036170;28;20488;-66
2022/10/11 07:18:57;;;;;;;31.65;18.40;;;28.20;99.90;;;;;;5032780;28;20484;-65
2022/10/11 07:21:23;;;;;;;31.67;19.58;;;28.20;99.90;;;;;;5035335;28;20021;-65
2022/10/11 07:23:50;;;;;;;23.15;14.95;;;28.30;99.90;;;;;;5035632;28;20029;-66
2022/10/11 07:26:18;;;;;;;16.70;13.50;;;28.20;99.90;;;;;;5036748;28;20084;-66
2022/10/11 07:28:46;;;;;;;18.75;12.40;;;28.10;99.90;;;;;;5035685;28;20033;-66
2022/10/11 07:31:19;;;;;;;19.77;12.25;;;28.00;99.90;;;;;;5036357;28;20028;-66
2022/10/11 07:33:45;;;;;;;20.30;12.45;;;28.10;99.90;;;;;;5036437;28;20053;-65
2022/10/11 07:36:13;;;;;;;19.25;12.40;;;28.10;99.90;;;;;;5036364;28;20033;-66
2022/10/11 07:38:41;;;;;;;27.45;17.10;;;28.20;99.90;;;;;;5036204;28;20018;-66
2022/10/11 07:41:08;;;;;;;25.00;14.60;;;28.30;99.90;;;;;;5036109;28;20060;-66
2022/10/11 07:43:36;;;;;;;27.35;14.07;;;28.30;99.90;;;;;;5036059;28;20080;-65
2022/10/11 07:46:04;;;;;;;30.55;19.95;;;28.30;99.90;;;;;;5035931;28;20029;-66
2022/10/11 07:48:31;;;;;;;35.95;21.60;;;28.30;99.90;;;;;;5036154;28;20518;-66
2022/10/11 07:51:06;;;;;;;38.20;21.20;;;28.30;99.90;;;;;;5036140;28;20121;-65
2022/10/11 07:53:46;;;;;;;38.60;24.23;;;28.40;99.90;;;;;;5035252;28;20037;-66
2022/10/11 07:56:16;;;;;;;81.90;52.60;;;28.40;99.90;;;;;;5036006;28;20030;-65
2022/10/11 07:58:43;;;;;;;116.78;74.93;;;28.50;99.90;;;;;;5035927;28;20026;-65
2022/10/11 08:01:10;;;;;;;77.65;49.95;;;28.40;99.90;;;;;;5035535;28;20029;-66
2022/10/11 08:03:38;;;;;;;68.25;45.88;;;28.40;99.90;;;;;;5035667;28;20061;-65
2022/10/11 08:06:07;;;;;;;90.03;55.85;;;28.40;99.90;;;;;;5035704;28;20379;-65
2022/10/11 08:08:34;;;;;;;64.88;44.25;;;28.50;99.90;;;;;;5034814;28;20025;-66
2022/10/11 08:11:01;;;;;;;55.30;33.95;;;28.60;99.90;;;;;;5035670;28;20034;-66
2022/10/11 08:13:28;;;;;;;39.38;27.83;;;28.60;99.90;;;;;;5035985;28;20032;-66
2022/10/11 08:15:55;;;;;;;50.47;32.40;;;28.70;99.90;;;;;;5042964;28;20043;-67
2022/10/11 08:18:21;;;;;;;56.83;38.63;;;28.80;99.90;;;;;;5055467;28;20017;-67
2022/10/11 08:20:48;;;;;;;67.57;39.80;;;28.70;99.90;;;;;;5048962;28;20037;-66
2022/10/11 08:23:16;;;;;;;58.95;38.55;;;28.70;99.90;;;;;;5047344;28;20025;-67
2022/10/11 08:25:45;;;;;;;58.28;36.50;;;28.70;99.90;;;;;;5044334;28;20029;-66
2022/10/11 08:28:15;;;;;;;67.00;38.35;;;28.70;99.90;;;;;;5042648;28;20029;-66
2022/10/11 08:30:53;;;;;;;51.85;31.17;;;28.70;99.90;;;;;;5043416;28;20021;-66
2022/10/11 08:33:21;;;;;;;43.45;28.52;;;28.80;99.90;;;;;;5044057;28;20460;-66
2022/10/11 08:35:49;;;;;;;39.22;25.13;;;28.80;99.90;;;;;;5038152;28;20037;-65
2022/10/11 08:38:16;;;;;;;35.90;25.20;;;28.80;99.90;;;;;;5034248;28;20048;-65
2022/10/11 08:40:49;;;;;;;43.10;26.40;;;28.80;99.90;;;;;;5040217;28;20033;-66
2022/10/11 08:43:29;;;;;;;40.78;27.02;;;28.80;99.90;;;;;;5041713;28;20467;-66
2022/10/11 08:46:00;;;;;;;37.45;25.17;;;28.90;99.90;;;;;;5042774;28;20044;-66
2022/10/11 08:48:34;;;;;;;41.00;28.33;;;29.00;99.90;;;;;;5042255;28;20045;-66
2022/10/11 08:51:07;;;;;;;42.42;25.45;;;29.00;99.90;;;;;;5045023;28;20029;-65
2022/10/11 08:53:44;;;;;;;45.83;27.42;;;29.00;99.90;;;;;;5044555;28;20020;-65
2022/10/11 08:56:13;;;;;;;45.38;27.40;;;29.00;99.90;;;;;;5043447;28;20033;-65
2022/10/11 08:58:48;;;;;;;40.55;23.80;;;29.10;99.90;;;;;;5047875;28;20025;-64
2022/10/11 09:01:30;;;;;;;43.60;26.13;;;29.10;99.90;;;;;;5044202;28;20468;-65
2022/10/11 09:03:58;;;;;;;52.20;28.67;;;29.20;99.90;;;;;;5044136;28;20025;-66
2022/10/11 09:06:45;;;;;;;44.45;28.67;;;29.30;99.90;;;;;;5042301;28;20493;-64
2022/10/11 09:09:22;;;;;;;48.00;27.92;;;29.30;99.90;;;;;;5043516;28;20113;-64
2022/10/11 09:12:09;;;;;;;39.55;24.73;;;29.40;99.90;;;;;;5043122;28;20026;-64
2022/10/11 09:14:39;;;;;;;40.25;26.25;;;29.40;99.90;;;;;;5043241;28;20033;-65
2022/10/11 09:17:34;;;;;;;37.17;27.63;;;29.40;99.90;;;;;;5040234;28;20049;-65
2022/10/11 09:20:37;;;;;;;45.42;28.02;;;29.40;99.90;;;;;;5040701;28;20029;-66
2022/10/11 09:23:04;;;;;;;46.75;28.90;;;29.50;99.90;;;;;;5048089;28;20040;-67
2022/10/11 09:25:48;;;;;;;52.05;27.95;;;29.40;99.90;;;;;;5051084;28;20058;-67
2022/10/11 09:28:17;;;;;;;37.67;24.77;;;29.40;99.90;;;;;;5054352;28;20102;-66
2022/10/11 09:30:49;;;;;;;45.85;26.85;;;29.40;99.90;;;;;;5054293;28;20021;-65
2022/10/11 09:33:19;;;;;;;42.47;25.38;;;29.30;99.90;;;;;;5054224;28;20029;-66
2022/10/11 09:35:50;;;;;;;40.30;29.00;;;29.30;99.90;;;;;;5054158;28;20025;-66
2022/10/11 09:38:21;;;;;;;33.03;19.15;;;29.20;99.90;;;;;;5054527;28;20128;-66
2022/10/11 09:40:59;;;;;;;28.67;19.63;;;29.10;99.90;;;;;;5054050;28;20032;-67
2022/10/11 09:43:26;;;;;;;36.00;24.20;;;28.90;99.90;;;;;;5054576;28;20383;-67
2022/10/11 09:45:52;;;;;;;41.42;30.55;;;28.90;99.90;;;;;;5054528;28;20025;-67
2022/10/11 09:48:26;;;;;;;25.83;17.75;;;28.80;99.90;;;;;;5053992;28;20020;-67
2022/10/11 09:50:57;;;;;;;23.33;16.35;;;28.70;99.90;;;;;;5053867;28;20074;-66
2022/10/11 09:54:04;;;;;;;23.25;16.52;;;28.70;99.90;;;;;;5043703;28;20024;-67
2022/10/11 09:56:32;;;;;;;26.73;17.67;;;28.70;99.90;;;;;;5044711;28;20096;-68
2022/10/11 09:59:28;;;;;;;21.23;13.50;;;28.60;99.90;;;;;;5041994;28;20059;-68
2022/10/11 10:02:17;;;;;;;22.45;13.80;;;28.50;99.90;;;;;;5043546;28;20014;-68
2022/10/11 10:05:06;;;;;;;21.95;14.30;;;28.50;99.90;;;;;;5042170;28;20488;-68
2022/10/11 10:07:33;;;;;;;21.67;13.25;;;28.50;99.90;;;;;;5043015;28;20021;-68
2022/10/11 10:10:26;;;;;;;19.20;12.85;;;28.50;99.90;;;;;;5042812;28;20478;-66
2022/10/11 10:12:57;;;;;;;27.00;16.60;;;28.40;99.90;;;;;;5043675;28;20107;-66
2022/10/11 10:15:29;;;;;;;24.00;12.23;;;28.40;99.90;;;;;;5033375;28;20057;-66
2022/10/11 10:20:53;;;;;;;22.67;13.40;;;28.30;99.90;;;;;;5053653;28;19931;-65
2022/10/11 10:23:25;;;;;;;27.10;13.90;;;28.30;99.90;;;;;;5053103;28;20021;-66
2022/10/11 10:26:07;;;;;;;32.20;15.65;;;28.20;99.90;;;;;;5049940;28;20033;-65
2022/10/11 10:28:35;;;;;;;27.02;14.30;;;28.10;99.90;;;;;;5042126;28;20025;-65
2022/10/11 10:31:01;;;;;;;39.70;14.90;;;28.00;99.90;;;;;;5041802;28;20021;-64
2022/10/11 10:33:33;;;;;;;36.97;23.95;;;28.00;99.90;;;;;;5043459;28;20070;-64
2022/10/11 10:36:14;;;;;;;32.63;18.45;;;27.90;99.90;;;;;;5042578;28;20029;-64
2022/10/11 10:38:48;;;;;;;23.50;14.60;;;27.90;99.90;;;;;;5042935;28;20075;-65
2022/10/11 10:41:17;;;;;;;21.95;14.05;;;27.80;99.90;;;;;;5042175;28;20024;-65
2022/10/11 10:43:51;;;;;;;24.15;14.13;;;27.70;99.90;;;;;;5023832;28;20029;-64
2022/10/11 10:46:33;;;;;;;27.52;15.75;;;27.80;99.90;;;;;;5042461;28;20427;-65
2022/10/11 10:48:59;;;;;;;;;;;27.80;99.90;;;;;;5043298;28;20088;-65
2022/10/11 10:51:29;;;;;;;31.60;16.20;;;27.70;99.90;;;;;;5041393;28;19920;-65
2022/10/11 10:54:10;;;;;;;38.03;18.98;;;27.70;99.90;;;;;;5045102;28;20036;-65
2022/10/11 10:56:59;;;;;;;33.25;21.20;;;27.80;99.90;;;;;;5044156;28;20022;-65
2022/10/11 10:59:28;;;;;;;75.05;47.65;;;27.70;99.90;;;;;;5043576;28;20116;-63
2022/10/11 11:02:07;;;;;;;63.28;36.75;;;27.70;99.90;;;;;;5042016;28;20106;-65
2022/10/11 11:04:35;;;;;;;49.63;29.30;;;27.60;99.90;;;;;;5041151;28;20489;-64
2022/10/11 11:07:07;;;;;;;46.67;29.42;;;27.60;99.90;;;;;;5041429;28;20025;-64
2022/10/11 11:09:37;;;;;;;50.83;29.70;;;27.70;99.90;;;;;;5041161;28;20496;-65
2022/10/11 11:12:15;;;;;;;65.00;35.67;;;27.80;99.90;;;;;;5041088;28;20094;-64
2022/10/11 11:14:45;;;;;;;56.00;33.70;;;27.70;99.90;;;;;;5042310;28;20049;-65
2022/10/11 11:17:30;;;;;;;61.22;35.08;;;27.70;99.90;;;;;;5041144;28;20460;-64
2022/10/11 11:20:23;;;;;;;65.90;34.17;;;27.70;99.90;;;;;;5042037;28;20038;-65
2022/10/11 11:23:18;;;;;;;51.28;31.92;;;27.60;99.90;;;;;;5045514;28;20022;-64
2022/10/11 11:26:06;;;;;;;59.58;33.90;;;27.70;99.90;;;;;;5047548;28;20029;-66
2022/10/11 11:28:40;;;;;;;60.28;33.67;;;27.60;99.90;;;;;;5040560;28;20026;-65
2022/10/11 11:31:31;;;;;;;56.80;33.40;;;27.60;99.90;;;;;;5040636;28;20036;-66
2022/10/11 11:34:01;;;;;;;45.70;24.83;;;27.60;99.90;;;;;;5041287;28;20036;-64
2022/10/11 11:36:40;;;;;;;47.78;24.05;;;27.60;99.90;;;;;;5040485;28;20442;-64
2022/10/11 11:39:15;;;;;;;41.45;20.52;;;27.60;99.90;;;;;;5047260;28;20025;-65
2022/10/11 11:41:50;;;;;;;32.75;21.27;;;27.60;99.90;;;;;;5043499;28;20050;-65
2022/10/11 11:44:31;;;;;;;33.97;21.33;;;27.60;99.90;;;;;;5035838;28;20037;-65
2022/10/11 11:47:03;;;;;;;47.85;24.08;;;27.60;99.90;;;;;;5036340;28;20545;-65
2022/10/11 11:50:00;;;;;;;45.77;23.93;;;27.60;99.90;;;;;;5043317;28;20070;-65
2022/10/11 11:52:36;;;;;;;41.63;21.20;;;27.60;99.90;;;;;;5032906;28;20045;-64
2022/10/11 11:55:20;;;;;;;58.15;25.33;;;27.60;99.90;;;;;;5019899;28;20306;-65
2022/10/11 11:57:56;;;;;;;46.47;22.35;;;27.60;99.90;;;;;;5015245;28;20531;-64
2022/10/11 12:00:39;;;;;;;37.40;21.48;;;27.60;99.90;;;;;;5015065;28;20029;-65
2022/10/11 12:03:20;;;;;;;48.13;22.70;;;27.50;99.90;;;;;;5007392;28;20022;-65
2022/10/11 12:06:18;;;;;;;47.45;22.88;;;27.60;99.90;;;;;;5020404;28;20092;-65
2022/10/11 12:09:03;;;;;;;37.58;18.52;;;27.50;99.90;;;;;;5022001;28;20033;-65
2022/10/11 12:11:48;;;;;;;31.88;16.55;;;27.50;99.90;;;;;;5013505;28;20030;-64
2022/10/11 12:14:22;;;;;;;31.08;16.20;;;27.50;99.90;;;;;;5027845;28;20025;-65
2022/10/11 12:17:10;;;;;;;116.35;86.75;;;27.50;99.90;;;;;;5034367;28;20041;-64
2022/10/11 12:19:39;;;;;;;31.65;17.98;;;27.50;99.90;;;;;;5034546;28;20049;-65
2022/10/11 12:22:26;;;;;;;141.73;99.13;;;27.50;99.90;;;;;;5038641;28;20105;-65
2022/10/11 12:24:58;;;;;;;103.82;74.18;;;27.40;99.90;;;;;;5056511;28;20028;-64
2022/10/11 12:27:45;;;;;;;97.40;64.28;;;27.40;99.90;;;;;;5056300;28;20112;-65
2022/10/11 12:30:42;;;;;;;91.22;60.75;;;27.50;99.90;;;;;;5056338;28;20032;-65
2022/10/11 12:33:31;;;;;;;72.55;44.67;;;27.50;99.90;;;;;;4994914;28;20034;-65
2022/10/11 12:36:21;;;;;;;42.58;19.42;;;27.40;99.90;;;;;;4993297;28;20035;-65
2022/10/11 12:39:18;;;;;;;29.30;16.25;;;27.40;99.90;;;;;;4990959;28;20034;-66
2022/10/11 12:42:05;;;;;;;29.85;15.27;;;27.40;99.90;;;;;;4987871;28;20110;-65
2022/10/11 12:44:32;;;;;;;33.40;16.13;;;27.40;99.90;;;;;;4983448;28;20105;-65
2022/10/11 12:47:29;;;;;;;37.88;15.93;;;27.40;99.90;;;;;;4983545;28;20034;-65
2022/10/11 12:50:03;;;;;;;25.80;16.10;;;27.40;99.90;;;;;;4985386;28;20030;-65
2022/10/11 12:52:51;;;;;;;25.45;15.57;;;27.40;99.90;;;;;;4983142;28;20516;-65
2022/10/11 12:55:19;;;;;;;27.67;16.30;;;27.40;99.90;;;;;;4983219;28;20560;-65